createdAt,value
2019-02-25T00:00:55.387Z,4.70
2019-02-25T00:05:01.908Z,4.80
2019-02-25T00:09:06.550Z,4.70
2019-02-25T00:13:12.883Z,4.60
2019-02-25T00:17:17.283Z,4.60
2019-02-25T00:21:22.170Z,4.60
2019-02-25T00:25:27.859Z,4.50
2019-02-25T00:29:32.303Z,4.50
2019-02-25T00:33:36.794Z,4.50
2019-02-25T00:37:42.042Z,4.50
2019-02-25T00:41:46.812Z,4.40
2019-02-25T00:45:51.316Z,4.40
2019-02-25T00:49:56.195Z,4.30
2019-02-25T00:54:01.221Z,4.20
2019-02-25T00:58:05.671Z,4.20
2019-02-25T01:02:10.330Z,4.10
2019-02-25T01:06:15.044Z,3.80
2019-02-25T01:10:19.558Z,3.80
2019-02-25T01:14:24.331Z,3.70
2019-02-25T01:18:29.257Z,3.70
2019-02-25T01:22:33.764Z,3.90
2019-02-25T01:26:38.909Z,3.80
2019-02-25T01:30:43.812Z,3.60
2019-02-25T01:34:48.541Z,3.60
2019-02-25T01:38:53.311Z,3.70
2019-02-25T01:42:57.942Z,3.70
2019-02-25T01:47:02.356Z,3.50
2019-02-25T01:51:06.776Z,3.50
2019-02-25T01:55:11.583Z,3.50
2019-02-25T01:59:16.354Z,3.60
2019-02-25T02:03:20.788Z,3.60
2019-02-25T02:07:25.281Z,3.60
2019-02-25T02:11:29.826Z,3.60
2019-02-25T02:15:35.837Z,3.60
2019-02-25T02:19:40.654Z,3.40
2019-02-25T02:23:45.406Z,3.50
2019-02-25T02:27:50.234Z,3.60
2019-02-25T02:31:54.750Z,3.60
2019-02-25T02:35:59.460Z,3.70
2019-02-25T02:40:04.042Z,3.70
2019-02-25T02:44:08.610Z,3.50
2019-02-25T02:48:34.570Z,3.50
2019-02-25T02:52:39.551Z,3.40
2019-02-25T02:56:44.401Z,3.30
2019-02-25T03:00:49.164Z,3.40
2019-02-25T03:04:56.802Z,3.40
2019-02-25T03:09:01.899Z,3.50
2019-02-25T03:13:08.734Z,3.50
2019-02-25T03:17:13.612Z,3.50
2019-02-25T03:21:18.776Z,3.50
2019-02-25T03:25:23.561Z,3.40
2019-02-25T03:29:29.542Z,3.30
2019-02-25T03:33:34.035Z,3.20
2019-02-25T03:37:38.976Z,3.20
2019-02-25T03:41:44.508Z,3.40
2019-02-25T03:45:48.991Z,3.50
2019-02-25T03:49:53.977Z,3.60
2019-02-25T03:53:59.379Z,3.60
2019-02-25T03:58:03.818Z,3.60
2019-02-25T04:02:08.644Z,3.50
2019-02-25T04:06:13.290Z,3.50
2019-02-25T04:10:18.128Z,3.30
2019-02-25T04:14:23.364Z,3.20
2019-02-25T04:18:28.281Z,3.10
2019-02-25T04:22:33.348Z,3.10
2019-02-25T04:26:37.771Z,3.20
2019-02-25T04:30:42.440Z,3.20
2019-02-25T04:34:47.172Z,3.20
2019-02-25T04:38:51.840Z,3.10
2019-02-25T04:42:56.814Z,3.00
2019-02-25T04:47:01.304Z,3.40
2019-02-25T04:51:05.753Z,3.60
2019-02-25T04:55:10.447Z,3.60
2019-02-25T04:59:15.191Z,3.80
2019-02-25T05:03:19.693Z,3.80
2019-02-25T05:07:24.558Z,3.50
2019-02-25T05:11:33.038Z,3.30
2019-02-25T05:15:37.539Z,3.50
2019-02-25T05:19:41.982Z,3.60
2019-02-25T05:23:47.419Z,3.60
2019-02-25T05:27:52.187Z,3.50
2019-02-25T05:31:57.744Z,3.30
2019-02-25T05:36:02.627Z,3.20
2019-02-25T05:40:10.123Z,3.10
2019-02-25T05:44:14.657Z,2.90
2019-02-25T05:48:19.131Z,3.10
2019-02-25T05:52:24.528Z,3.20
2019-02-25T05:56:29.369Z,3.10
2019-02-25T06:00:35.444Z,3.20
2019-02-25T06:04:40.161Z,3.40
2019-02-25T06:08:44.994Z,3.40
2019-02-25T06:12:49.826Z,3.40
2019-02-25T06:16:54.316Z,3.30
2019-02-25T06:20:59.513Z,3.30
2019-02-25T06:25:04.051Z,3.40
2019-02-25T06:29:08.964Z,3.50
2019-02-25T06:33:13.636Z,3.60
2019-02-25T06:37:18.375Z,3.60
2019-02-25T06:41:23.534Z,3.60
2019-02-25T06:45:28.317Z,3.60
2019-02-25T06:49:33.520Z,3.70
2019-02-25T06:53:37.978Z,3.80
2019-02-25T06:57:42.472Z,3.90
2019-02-25T07:01:47.219Z,4.00
2019-02-25T07:06:10.109Z,4.10
2019-02-25T07:10:32.753Z,4.20
2019-02-25T07:15:06.267Z,4.30
2019-02-25T07:19:25.192Z,4.20
2019-02-25T07:24:04.679Z,4.20
2019-02-25T07:28:43.796Z,4.40
2019-02-25T07:33:08.632Z,4.40
2019-02-25T07:37:32.722Z,4.50
2019-02-25T07:41:57.763Z,4.50
2019-02-25T07:46:22.149Z,4.60
2019-02-25T07:50:34.162Z,4.70
2019-02-25T07:55:10.223Z,4.90
2019-02-25T07:59:34.400Z,5.10
2019-02-25T08:03:58.213Z,5.30
2019-02-25T08:08:11.441Z,5.50
2019-02-25T08:12:34.744Z,5.60
2019-02-25T08:16:48.499Z,5.80
2019-02-25T08:21:12.579Z,6.00
2019-02-25T08:25:34.900Z,6.10
2019-02-25T08:29:45.616Z,6.20
2019-02-25T08:34:18.427Z,6.50
2019-02-25T08:38:30.018Z,6.60
2019-02-25T08:42:49.174Z,6.70
2019-02-25T08:47:07.527Z,6.80
2019-02-25T08:51:12.476Z,6.90
2019-02-25T08:55:17.495Z,7.00
2019-02-25T08:59:22.583Z,7.30
2019-02-25T09:03:27.300Z,7.80
2019-02-25T09:07:31.983Z,8.10
2019-02-25T09:11:36.794Z,10.30
2019-02-25T09:15:41.529Z,11.90
2019-02-25T09:19:47.557Z,13.00
2019-02-25T09:23:52.449Z,13.50
2019-02-25T09:27:57.172Z,13.70
2019-02-25T09:32:01.998Z,13.80
2019-02-25T09:36:07.469Z,14.20
2019-02-25T09:40:15.471Z,14.10
2019-02-25T09:44:20.279Z,14.40
2019-02-25T09:48:25.198Z,14.80
2019-02-25T09:52:29.676Z,15.10
2019-02-25T09:56:34.372Z,15.60
2019-02-25T10:00:39.153Z,16.20
2019-02-25T10:04:44.568Z,16.60
2019-02-25T10:08:49.286Z,15.60
2019-02-25T10:12:54.359Z,15.00
2019-02-25T10:16:58.871Z,15.30
2019-02-25T10:21:04.264Z,15.30
2019-02-25T10:25:08.702Z,15.50
2019-02-25T10:29:13.214Z,15.30
2019-02-25T10:33:18.055Z,14.90
2019-02-25T10:37:22.791Z,15.40
2019-02-25T10:41:27.837Z,15.70
2019-02-25T10:45:35.073Z,16.80
2019-02-25T10:49:40.694Z,17.60
2019-02-25T10:53:47.204Z,19.30
2019-02-25T10:57:52.827Z,18.70
2019-02-25T11:01:58.081Z,18.10
2019-02-25T11:06:03.352Z,18.20
2019-02-25T11:10:22.342Z,18.20
2019-02-25T11:14:27.887Z,18.20
2019-02-25T11:18:33.611Z,18.30
2019-02-25T11:22:39.825Z,17.40
2019-02-25T11:26:51.892Z,18.40
2019-02-25T11:30:57.827Z,19.10
2019-02-25T11:35:04.058Z,19.10
2019-02-25T11:39:10.754Z,18.30
2019-02-25T11:43:16.640Z,19.00
2019-02-25T11:47:21.686Z,20.00
2019-02-25T11:51:27.307Z,19.90
2019-02-25T11:55:32.667Z,20.40
2019-02-25T11:59:38.332Z,21.30
2019-02-25T12:03:43.260Z,20.70
2019-02-25T12:07:48.122Z,19.80
2019-02-25T12:11:53.142Z,20.10
2019-02-25T12:15:57.602Z,20.40
2019-02-25T12:20:02.415Z,20.40
2019-02-25T12:24:07.435Z,20.10
2019-02-25T12:28:12.244Z,18.40
2019-02-25T12:32:17.370Z,16.40
2019-02-25T12:36:21.975Z,15.30
2019-02-25T12:40:26.749Z,15.00
2019-02-25T12:44:32.450Z,14.70
2019-02-25T12:48:37.455Z,14.60
2019-02-25T12:52:42.363Z,14.40
2019-02-25T12:56:47.309Z,14.10
2019-02-25T13:00:52.090Z,14.00
2019-02-25T13:04:57.474Z,13.80
2019-02-25T13:09:02.373Z,13.70
2019-02-25T13:13:08.996Z,13.80
2019-02-25T13:17:13.428Z,13.60
2019-02-25T13:21:18.365Z,13.60
2019-02-25T13:25:23.186Z,13.80
2019-02-25T13:29:28.055Z,13.70
2019-02-25T13:33:33.479Z,13.70
2019-02-25T13:37:38.724Z,13.60
2019-02-25T13:41:45.236Z,13.60
2019-02-25T13:45:50.148Z,13.60
2019-02-25T13:49:55.564Z,13.60
2019-02-25T13:54:00.216Z,13.70
2019-02-25T13:58:04.749Z,13.60
2019-02-25T14:02:10.733Z,13.60
2019-02-25T14:06:15.866Z,13.60
2019-02-25T14:10:20.380Z,13.60
2019-02-25T14:14:25.404Z,13.60
2019-02-25T14:18:30.556Z,13.60
2019-02-25T14:22:35.729Z,13.60
2019-02-25T14:26:40.827Z,13.60
2019-02-25T14:30:45.833Z,13.60
2019-02-25T14:34:50.253Z,13.60
2019-02-25T14:38:56.450Z,13.40
2019-02-25T14:43:04.108Z,13.40
2019-02-25T14:47:19.731Z,13.50
2019-02-25T14:51:14.449Z,13.50
2019-02-25T14:55:18.986Z,13.40
2019-02-25T14:59:23.804Z,13.40
2019-02-25T15:03:29.138Z,13.30
2019-02-25T15:07:35.312Z,13.30
2019-02-25T15:11:43.378Z,13.20
2019-02-25T15:15:53.900Z,13.20
2019-02-25T15:19:58.614Z,13.10
2019-02-25T15:24:04.662Z,13.00
2019-02-25T15:28:22.188Z,13.00
2019-02-25T15:32:26.974Z,12.90
2019-02-25T15:36:45.214Z,12.90
2019-02-25T15:40:49.680Z,12.90
2019-02-25T15:44:55.541Z,12.80
2019-02-25T15:49:01.236Z,12.70
2019-02-25T15:53:07.449Z,12.60
2019-02-25T15:57:12.681Z,12.60
2019-02-25T16:01:17.181Z,12.60
2019-02-25T16:05:23.392Z,12.50
2019-02-25T16:09:29.706Z,12.40
2019-02-25T16:13:35.007Z,12.30
2019-02-25T16:17:39.845Z,12.10
2019-02-25T16:21:44.382Z,11.90
2019-02-25T16:25:51.008Z,11.80
2019-02-25T16:29:58.070Z,11.70
2019-02-25T16:34:04.063Z,11.60
2019-02-25T16:38:09.040Z,11.60
2019-02-25T16:42:13.644Z,11.40
2019-02-25T16:46:20.212Z,11.30
2019-02-25T16:50:25.424Z,11.50
2019-02-25T16:54:30.503Z,11.30
2019-02-25T16:58:36.426Z,11.10
2019-02-25T17:02:42.732Z,10.90
2019-02-25T17:06:49.171Z,11.00
2019-02-25T17:10:56.212Z,10.80
2019-02-25T17:15:02.427Z,11.20
2019-02-25T17:19:09.338Z,11.00
2019-02-25T17:23:15.566Z,10.80
2019-02-25T17:27:20.701Z,10.50
2019-02-25T17:31:25.555Z,10.30
2019-02-25T17:35:30.775Z,10.20
2019-02-25T17:39:35.934Z,10.20
2019-02-25T17:43:43.083Z,10.20
2019-02-25T17:47:48.733Z,10.30
2019-02-25T17:51:59.914Z,10.30
2019-02-25T17:56:05.539Z,10.30
2019-02-25T18:00:21.477Z,10.20
2019-02-25T18:04:30.410Z,10.20
2019-02-25T18:08:39.433Z,10.20
2019-02-25T18:12:44.591Z,10.20
2019-02-25T18:16:50.782Z,10.20
2019-02-25T18:20:55.707Z,10.20
2019-02-25T18:25:10.240Z,10.00
2019-02-25T18:29:46.143Z,10.10
2019-02-25T18:33:53.348Z,10.10
2019-02-25T18:38:13.494Z,10.10
2019-02-25T18:42:20.262Z,10.10
2019-02-25T18:46:31.744Z,10.00
2019-02-25T18:55:56.903Z,9.70
2019-02-25T19:00:09.192Z,9.60
2019-02-25T19:04:58.226Z,9.50
2019-02-25T19:09:23.258Z,9.90
2019-02-25T19:13:40.213Z,9.80
2019-02-25T19:17:56.259Z,9.50
2019-02-25T19:22:05.901Z,9.30
2019-02-25T19:26:12.965Z,9.20
2019-02-25T19:30:19.761Z,9.20
2019-02-25T19:34:24.513Z,9.20
2019-02-25T19:38:33.973Z,9.30
2019-02-25T19:42:36.617Z,9.40
2019-02-25T19:46:42.963Z,9.30
2019-02-25T19:50:51.365Z,9.20
2019-02-25T19:54:55.016Z,9.10
2019-02-25T19:59:00.775Z,9.10
2019-02-25T20:03:06.492Z,9.10
2019-02-25T20:07:13.279Z,9.10
2019-02-25T20:11:18.375Z,9.00
2019-02-25T20:15:25.234Z,8.90
2019-02-25T20:19:29.511Z,8.80
2019-02-25T20:23:35.076Z,8.80
2019-02-25T20:27:40.324Z,8.70
2019-02-25T20:31:45.392Z,8.60
2019-02-25T20:35:51.698Z,8.60
2019-02-25T20:39:56.683Z,8.60
2019-02-25T20:44:03.289Z,8.60
2019-02-25T20:48:09.243Z,8.50
2019-02-25T20:52:15.909Z,8.50
2019-02-25T20:56:22.309Z,8.40
2019-02-25T21:00:30.195Z,8.40
2019-02-25T21:04:36.462Z,8.30
2019-02-25T21:08:42.371Z,8.20
2019-02-25T21:12:50.279Z,8.10
2019-02-25T21:16:56.408Z,8.10
2019-02-25T21:21:02.243Z,8.10
2019-02-25T21:25:07.408Z,8.00
2019-02-25T21:29:12.401Z,8.10
2019-02-25T21:33:18.021Z,8.10
2019-02-25T21:37:25.016Z,8.10
2019-02-25T21:41:30.313Z,8.00
2019-02-25T21:45:34.789Z,8.00
2019-02-25T21:49:40.544Z,8.00
2019-02-25T21:53:46.252Z,8.00
2019-02-25T21:57:52.531Z,8.20
2019-02-25T22:01:57.782Z,8.00
2019-02-25T22:06:04.917Z,7.90
2019-02-25T22:10:11.102Z,7.90
2019-02-25T22:14:16.486Z,7.90
2019-02-25T22:18:23.119Z,8.20
2019-02-25T22:22:28.837Z,8.50
2019-02-25T22:26:35.663Z,8.40
2019-02-25T22:30:45.080Z,8.40
2019-02-25T22:34:49.752Z,8.40
2019-02-25T22:39:13.625Z,8.00
2019-02-25T22:43:18.742Z,7.80
2019-02-25T22:47:24.411Z,7.60
2019-02-25T22:51:30.764Z,7.50
2019-02-25T22:55:39.752Z,7.50
2019-02-25T22:59:43.791Z,7.40
2019-02-25T23:03:52.149Z,7.30
2019-02-25T23:07:55.699Z,7.30
2019-02-25T23:12:00.528Z,7.20
2019-02-25T23:16:06.404Z,7.20
2019-02-25T23:20:11.312Z,7.10
2019-02-25T23:24:15.772Z,7.10
2019-02-25T23:28:20.634Z,7.10
2019-02-25T23:32:27.322Z,7.20
2019-02-25T23:36:43.029Z,7.20
2019-02-25T23:40:45.531Z,7.10
2019-02-25T23:44:51.296Z,7.10
2019-02-25T23:48:56.140Z,7.20
2019-02-25T23:53:01.704Z,7.10
2019-02-25T23:57:08.413Z,7.00
